KIAH/IAH METAR and TAF weather

Enter ICAO airport designator
Station Type Date Time Source
KIAH METAR 2023/02/04 00:53 UTC NOAA

KIAH 040053Z 01005KT 10SM CLR 12/04 A3049 RMK AO2 SLP326 T01170039


Station Type Date Time Source
KIAH Decoded METAR 2023/02/04 00:53 UTC NOAA

HOUSTON INTERCONTINENTAL, TX, United States (KIAH) 30-00N 095-22W 36M
Feb 03, 2023 - 07:53 PM EST / 2023.02.04 0053 UTC
Wind: from the N (010 degrees) at 6 MPH (5 KT):0
Visibility: 10 mile(s):0
Sky conditions: clear
Temperature: 53.1 F (11.7 C)
Dew Point: 39.0 F (3.9 C)
Relative Humidity: 58%
Pressure (altimeter): 30.49 in. Hg (1032 hPa)
ob: KIAH 040053Z 01005KT 10SM CLR 12/04 A3049 RMK AO2 SLP326 T01170039
cycle: 1

Station Type Date Time Source
KIAH TAF 2023/02/03 21:03 UTC NOAA

TAF
AMD KIAH 032100Z 0321/0424 36007KT P6SM SKC
FM040200 VRB03KT P6SM SKC
FM041400 11004KT P6SM FEW250
FM041800 15007KT P6SM SCT250

Example: see airport list